createdAt,value
2023-03-29T00:00:35.778Z,10.70
2023-03-29T00:03:04.209Z,9.63
2023-03-29T00:05:35.418Z,10.73
2023-03-29T00:08:04.481Z,9.50
2023-03-29T00:10:34.049Z,9.83
2023-03-29T00:13:02.166Z,10.10
2023-03-29T00:15:30.511Z,11.10
2023-03-29T00:17:58.622Z,9.97
2023-03-29T00:20:27.047Z,10.67
2023-03-29T00:22:56.571Z,10.87
2023-03-29T00:25:24.595Z,10.83
2023-03-29T00:27:52.665Z,12.47
2023-03-29T00:30:20.828Z,11.63
2023-03-29T00:32:48.890Z,11.00
2023-03-29T00:35:17.210Z,11.07
2023-03-29T00:37:47.163Z,11.13
2023-03-29T00:40:16.788Z,11.80
2023-03-29T00:42:46.368Z,11.70
2023-03-29T00:45:21.905Z,11.20
2023-03-29T00:47:52.821Z,10.57
2023-03-29T00:50:25.763Z,10.37
2023-03-29T00:53:00.109Z,11.17
2023-03-29T00:55:33.515Z,10.53
2023-03-29T00:58:02.714Z,11.37
2023-03-29T01:00:34.396Z,10.37
2023-03-29T01:03:07.147Z,9.77
2023-03-29T01:05:39.358Z,9.23
2023-03-29T01:08:12.476Z,9.90
2023-03-29T01:10:44.574Z,10.87
2023-03-29T01:13:18.239Z,9.47
2023-03-29T01:15:47.973Z,10.23
2023-03-29T01:18:16.094Z,10.87
2023-03-29T01:21:03.488Z,10.67
2023-03-29T01:23:51.104Z,10.83
2023-03-29T01:26:29.937Z,9.83
2023-03-29T01:29:04.171Z,8.93
2023-03-29T01:31:35.443Z,9.97
2023-03-29T01:34:09.789Z,11.13
2023-03-29T01:36:42.650Z,10.33
2023-03-29T01:39:10.644Z,9.90
2023-03-29T01:41:48.108Z,9.53
2023-03-29T01:44:22.071Z,9.87
2023-03-29T01:46:56.119Z,8.50
2023-03-29T01:49:28.350Z,8.33
2023-03-29T01:51:59.628Z,9.03
2023-03-29T01:54:33.325Z,11.87
2023-03-29T01:57:04.719Z,9.07
2023-03-29T01:59:38.452Z,9.17
2023-03-29T02:02:12.298Z,10.33
2023-03-29T02:04:45.845Z,8.27
2023-03-29T02:07:15.984Z,7.63
2023-03-29T02:09:44.884Z,8.50
2023-03-29T02:12:14.524Z,9.57
2023-03-29T02:14:44.036Z,7.67
2023-03-29T02:17:18.397Z,8.30
2023-03-29T02:19:51.192Z,7.53
2023-03-29T02:22:24.888Z,7.93
2023-03-29T02:24:59.149Z,7.73
2023-03-29T02:27:29.095Z,7.17
2023-03-29T02:29:59.088Z,7.77
2023-03-29T02:32:32.805Z,7.97
2023-03-29T02:35:06.625Z,9.20
2023-03-29T02:37:41.031Z,8.17
2023-03-29T02:40:12.655Z,6.23
2023-03-29T02:42:42.356Z,6.37
2023-03-29T02:45:14.275Z,5.83
2023-03-29T02:47:46.350Z,6.40
2023-03-29T02:50:15.011Z,5.63
2023-03-29T02:52:48.512Z,6.40
2023-03-29T02:55:20.327Z,7.03
2023-03-29T02:57:48.307Z,6.10
2023-03-29T03:00:19.864Z,9.37
2023-03-29T03:02:50.854Z,7.13
2023-03-29T03:05:19.364Z,6.77
2023-03-29T03:07:47.438Z,5.40
2023-03-29T03:10:15.951Z,7.70
2023-03-29T03:12:43.925Z,5.30
2023-03-29T03:15:13.451Z,5.60
2023-03-29T03:17:42.831Z,6.40
2023-03-29T03:20:13.792Z,5.47
2023-03-29T03:22:43.989Z,4.70
2023-03-29T03:25:12.991Z,5.63
2023-03-29T03:27:41.357Z,7.40
2023-03-29T03:30:11.406Z,7.33
2023-03-29T03:32:43.577Z,6.10
2023-03-29T03:35:12.031Z,6.60
2023-03-29T03:37:40.253Z,4.77
2023-03-29T03:40:11.669Z,6.10
2023-03-29T03:42:40.204Z,6.37
2023-03-29T03:45:09.827Z,5.17
2023-03-29T03:47:38.522Z,5.23
2023-03-29T03:50:09.657Z,5.00
2023-03-29T03:52:37.648Z,5.17
2023-03-29T03:55:06.310Z,5.13
2023-03-29T03:57:37.451Z,5.43
2023-03-29T04:00:19.167Z,4.67
2023-03-29T04:02:48.246Z,6.40
2023-03-29T04:05:18.242Z,6.53
2023-03-29T04:07:46.259Z,4.30
2023-03-29T04:10:14.622Z,4.43
2023-03-29T04:12:42.783Z,5.53
2023-03-29T04:15:12.177Z,4.73
2023-03-29T04:17:40.538Z,5.00
2023-03-29T04:20:11.628Z,7.43
2023-03-29T04:22:41.787Z,5.77
2023-03-29T04:25:11.610Z,6.13
2023-03-29T04:27:40.379Z,5.10
2023-03-29T04:30:09.730Z,5.87
2023-03-29T04:32:38.081Z,5.07
2023-03-29T04:35:06.847Z,4.83
2023-03-29T04:37:35.106Z,7.43
2023-03-29T04:40:08.692Z,5.00
2023-03-29T04:42:37.321Z,5.43
2023-03-29T04:45:06.955Z,4.87
2023-03-29T04:47:36.566Z,5.73
2023-03-29T04:50:05.090Z,5.17
2023-03-29T04:52:33.454Z,8.33
2023-03-29T04:55:02.019Z,6.00
2023-03-29T04:57:31.630Z,5.37
2023-03-29T04:59:59.632Z,5.90
2023-03-29T05:02:27.709Z,4.77
2023-03-29T05:04:55.681Z,5.20
2023-03-29T05:07:23.649Z,6.40
2023-03-29T05:09:51.982Z,8.00
2023-03-29T05:12:19.990Z,5.97
2023-03-29T05:14:49.315Z,7.00
2023-03-29T05:17:17.295Z,6.33
2023-03-29T05:19:45.289Z,5.50
2023-03-29T05:22:13.279Z,5.10
2023-03-29T05:24:42.107Z,6.30
2023-03-29T05:27:10.100Z,8.57
2023-03-29T05:29:38.051Z,9.53
2023-03-29T05:32:08.121Z,7.63
2023-03-29T05:34:36.464Z,7.23
2023-03-29T05:37:04.646Z,7.63
2023-03-29T05:39:35.152Z,6.43
2023-03-29T05:42:05.886Z,7.90
2023-03-29T05:44:34.267Z,6.77
2023-03-29T05:47:02.350Z,7.33
2023-03-29T05:49:31.908Z,7.53
2023-03-29T05:52:00.155Z,9.03
2023-03-29T05:54:29.219Z,9.37
2023-03-29T05:56:57.186Z,8.10
2023-03-29T05:59:28.566Z,9.70
2023-03-29T06:01:56.627Z,10.00
2023-03-29T06:04:25.421Z,8.73
2023-03-29T06:06:55.065Z,9.27
2023-03-29T06:09:23.160Z,9.80
2023-03-29T06:11:51.104Z,8.37
2023-03-29T06:14:19.493Z,9.23
2023-03-29T06:16:47.545Z,8.87
2023-03-29T06:19:15.983Z,10.90
2023-03-29T06:21:44.074Z,12.27
2023-03-29T06:24:13.428Z,11.50
2023-03-29T06:26:42.008Z,11.83
2023-03-29T06:29:10.306Z,11.70
2023-03-29T06:31:38.365Z,10.67
2023-03-29T06:34:06.680Z,12.00
2023-03-29T06:36:35.215Z,11.77
2023-03-29T06:39:06.490Z,12.10
2023-03-29T06:41:36.169Z,15.10
2023-03-29T06:44:05.013Z,13.17
2023-03-29T06:46:33.165Z,12.70
2023-03-29T06:49:01.417Z,12.50
2023-03-29T06:51:29.564Z,12.77
2023-03-29T06:53:57.600Z,13.40
2023-03-29T06:56:25.633Z,15.20
2023-03-29T06:58:55.035Z,14.63
2023-03-29T07:01:23.994Z,14.13
2023-03-29T07:03:52.074Z,13.90
2023-03-29T07:06:20.640Z,13.30
2023-03-29T07:08:52.328Z,13.93
2023-03-29T07:11:20.557Z,15.13
2023-03-29T07:13:49.092Z,14.43
2023-03-29T07:16:19.813Z,13.80
2023-03-29T07:18:48.039Z,13.27
2023-03-29T07:21:17.457Z,13.17
2023-03-29T07:23:45.440Z,13.37
2023-03-29T07:26:14.449Z,13.57
2023-03-29T07:28:57.437Z,12.97
2023-03-29T07:31:28.494Z,16.20
2023-03-29T07:33:56.777Z,14.90
2023-03-29T07:36:25.257Z,13.00
2023-03-29T07:38:56.311Z,12.80
2023-03-29T07:41:24.407Z,12.97
2023-03-29T07:43:52.386Z,12.57
2023-03-29T07:46:20.518Z,12.60
2023-03-29T07:48:49.920Z,13.97
2023-03-29T07:51:17.969Z,12.67
2023-03-29T07:53:45.950Z,12.00
2023-03-29T07:56:14.164Z,11.47
2023-03-29T07:58:42.102Z,13.27
2023-03-29T08:01:14.140Z,35.10
2023-03-29T08:03:43.610Z,61.33
2023-03-29T08:06:13.477Z,51.67
2023-03-29T08:08:41.706Z,35.93
2023-03-29T08:11:10.164Z,25.43
2023-03-29T08:13:38.209Z,19.53
2023-03-29T08:16:07.534Z,14.73
2023-03-29T08:18:35.574Z,12.00
2023-03-29T08:21:04.025Z,11.73
2023-03-29T08:23:33.761Z,11.37
2023-03-29T08:26:01.754Z,11.83
2023-03-29T08:28:29.753Z,11.00
2023-03-29T08:30:57.878Z,11.40
2023-03-29T08:33:26.153Z,10.37
2023-03-29T08:35:54.815Z,11.40
2023-03-29T08:38:24.904Z,10.60
2023-03-29T08:40:59.757Z,10.77
2023-03-29T08:43:44.334Z,10.70
2023-03-29T08:46:33.119Z,10.57
2023-03-29T08:49:06.209Z,10.27
2023-03-29T08:51:38.084Z,12.00
2023-03-29T08:54:10.661Z,10.43
2023-03-29T08:56:43.356Z,9.40
2023-03-29T08:59:20.005Z,12.40
2023-03-29T09:01:53.198Z,9.37
2023-03-29T09:04:25.954Z,9.83
2023-03-29T09:06:54.438Z,10.00
2023-03-29T09:09:26.668Z,9.53
2023-03-29T09:12:07.427Z,10.10
2023-03-29T09:14:49.709Z,9.50
2023-03-29T09:17:35.031Z,12.17
2023-03-29T09:20:12.459Z,9.83
2023-03-29T09:22:49.384Z,9.37
2023-03-29T09:25:24.908Z,10.57
2023-03-29T09:28:00.740Z,9.90
2023-03-29T09:30:33.279Z,9.60
2023-03-29T09:33:05.053Z,9.63
2023-03-29T09:35:38.231Z,10.50
2023-03-29T09:38:10.113Z,8.97
2023-03-29T09:40:43.275Z,9.80
2023-03-29T09:43:15.843Z,9.00
2023-03-29T09:45:48.090Z,8.77
2023-03-29T09:48:18.261Z,9.60
2023-03-29T09:50:48.459Z,9.50
2023-03-29T09:53:18.522Z,9.50
2023-03-29T09:55:50.296Z,9.57
2023-03-29T09:58:24.441Z,11.10
2023-03-29T10:00:53.610Z,10.30
2023-03-29T10:03:22.888Z,9.20
2023-03-29T10:05:53.290Z,9.83
2023-03-29T10:08:27.123Z,8.83
2023-03-29T10:10:55.444Z,9.67
2023-03-29T10:13:30.668Z,10.47
2023-03-29T10:16:02.477Z,10.00
2023-03-29T10:18:31.797Z,10.43
2023-03-29T10:21:02.596Z,9.23
2023-03-29T10:23:32.990Z,10.07
2023-03-29T10:26:01.835Z,10.03
2023-03-29T10:28:33.229Z,10.50
2023-03-29T10:31:04.065Z,10.50
2023-03-29T10:33:34.890Z,10.40
2023-03-29T10:36:07.865Z,10.10
2023-03-29T10:38:37.543Z,11.17
2023-03-29T10:41:10.068Z,12.87
2023-03-29T10:43:40.781Z,10.53
2023-03-29T10:46:10.907Z,9.80
2023-03-29T10:48:47.030Z,11.00
2023-03-29T10:51:16.168Z,9.63
2023-03-29T10:53:44.558Z,9.13
2023-03-29T10:56:29.906Z,10.93
2023-03-29T10:59:24.057Z,9.77
2023-03-29T11:02:44.918Z,10.30
2023-03-29T11:05:24.459Z,10.70
2023-03-29T11:08:05.600Z,10.00
2023-03-29T11:10:42.424Z,10.23
2023-03-29T11:13:18.247Z,14.07
2023-03-29T11:15:59.600Z,12.30
2023-03-29T11:18:57.299Z,10.80
2023-03-29T11:21:31.384Z,10.93
2023-03-29T11:24:16.719Z,12.47
2023-03-29T11:26:59.317Z,12.40
2023-03-29T11:29:31.942Z,17.40
2023-03-29T11:32:07.821Z,12.33
2023-03-29T11:34:45.483Z,12.67
2023-03-29T11:37:22.596Z,11.80
2023-03-29T11:40:02.282Z,12.50
2023-03-29T11:42:33.200Z,13.30
2023-03-29T11:45:05.648Z,12.50
2023-03-29T11:47:41.521Z,12.80
2023-03-29T11:50:18.450Z,12.93
2023-03-29T11:52:51.677Z,13.90
2023-03-29T11:55:23.722Z,12.43
2023-03-29T11:57:56.649Z,14.00
2023-03-29T12:00:28.929Z,14.87
2023-03-29T12:03:04.737Z,13.63
2023-03-29T12:05:36.011Z,13.50
2023-03-29T12:08:08.319Z,14.07
2023-03-29T12:10:38.845Z,19.37
2023-03-29T12:13:10.524Z,15.80
2023-03-29T12:15:44.778Z,15.47
2023-03-29T12:18:21.378Z,15.67
2023-03-29T12:20:53.922Z,16.03
2023-03-29T12:23:22.546Z,15.17
2023-03-29T12:25:58.206Z,17.33
2023-03-29T12:28:50.613Z,15.60
2023-03-29T12:31:25.550Z,16.07
2023-03-29T12:34:14.168Z,16.07
2023-03-29T12:37:01.976Z,17.20
2023-03-29T12:39:31.392Z,16.20
2023-03-29T12:42:08.274Z,17.03
2023-03-29T12:44:37.245Z,15.83
2023-03-29T12:47:05.422Z,16.83
2023-03-29T12:49:39.088Z,15.67
2023-03-29T12:52:16.152Z,15.77
2023-03-29T12:54:54.909Z,15.83
2023-03-29T12:57:28.900Z,15.70
2023-03-29T12:59:57.139Z,15.90
2023-03-29T13:02:36.996Z,16.10
2023-03-29T13:05:32.888Z,16.93
2023-03-29T13:08:11.526Z,17.70
2023-03-29T13:10:43.328Z,16.33
2023-03-29T13:13:19.957Z,16.70
2023-03-29T13:15:49.209Z,17.10
2023-03-29T13:18:36.173Z,15.33
2023-03-29T13:21:15.414Z,17.87
2023-03-29T13:23:54.278Z,15.77
2023-03-29T13:26:36.221Z,16.70
2023-03-29T13:29:32.473Z,16.70
2023-03-29T13:32:07.422Z,17.53
2023-03-29T13:34:43.259Z,17.63
2023-03-29T13:37:28.463Z,17.87
2023-03-29T13:39:57.138Z,18.37
2023-03-29T13:42:27.812Z,17.40
2023-03-29T13:45:14.638Z,17.37
2023-03-29T13:47:58.433Z,18.80
2023-03-29T13:50:39.352Z,18.77
2023-03-29T13:53:16.046Z,19.23
2023-03-29T13:55:51.008Z,18.63
2023-03-29T13:58:30.111Z,18.37
2023-03-29T14:01:03.493Z,19.10
2023-03-29T14:03:40.261Z,18.17
2023-03-29T14:06:10.526Z,18.33
2023-03-29T14:08:41.836Z,17.20
2023-03-29T14:11:23.119Z,17.30
2023-03-29T14:13:54.050Z,17.13
2023-03-29T14:16:22.997Z,17.33
2023-03-29T14:18:52.322Z,17.17
2023-03-29T14:21:22.141Z,17.43
2023-03-29T14:23:58.347Z,17.13
2023-03-29T14:26:31.960Z,16.03
2023-03-29T14:29:01.721Z,16.30
2023-03-29T14:31:33.535Z,16.30
2023-03-29T14:34:03.130Z,15.97
2023-03-29T14:36:33.479Z,16.37
2023-03-29T14:39:07.162Z,15.87
2023-03-29T14:41:38.077Z,16.83
2023-03-29T14:44:07.625Z,17.13
2023-03-29T14:46:36.845Z,16.57
2023-03-29T14:49:06.236Z,17.50
2023-03-29T14:51:34.749Z,17.40
2023-03-29T14:54:06.508Z,15.93
2023-03-29T14:56:35.006Z,17.00
2023-03-29T14:59:05.347Z,16.37
2023-03-29T15:01:33.496Z,15.93
2023-03-29T15:04:06.193Z,16.27
2023-03-29T15:06:39.551Z,16.80
2023-03-29T15:09:15.052Z,16.90
2023-03-29T15:11:43.154Z,18.33
2023-03-29T15:14:17.522Z,17.17
2023-03-29T15:16:48.284Z,17.50
2023-03-29T15:19:19.271Z,18.57
2023-03-29T15:21:49.525Z,19.30
2023-03-29T15:24:30.645Z,18.57
2023-03-29T15:27:04.218Z,17.90
2023-03-29T15:29:37.255Z,18.60
2023-03-29T15:32:05.535Z,17.33
2023-03-29T15:34:35.293Z,16.50
2023-03-29T15:37:04.111Z,15.57
2023-03-29T15:39:34.910Z,15.17
2023-03-29T15:42:02.984Z,14.97
2023-03-29T15:44:36.257Z,14.60
2023-03-29T15:47:04.695Z,15.20
2023-03-29T15:49:32.936Z,16.10
2023-03-29T15:52:00.922Z,14.20
2023-03-29T15:54:31.434Z,15.13
2023-03-29T15:57:04.128Z,14.70
2023-03-29T15:59:32.559Z,14.57
2023-03-29T16:02:01.224Z,15.33
2023-03-29T16:04:29.370Z,15.43
2023-03-29T16:06:57.775Z,16.60
2023-03-29T16:09:27.290Z,15.97
2023-03-29T16:11:55.337Z,15.67
2023-03-29T16:14:27.322Z,16.33
2023-03-29T16:16:57.155Z,17.50
2023-03-29T16:19:25.678Z,16.37
2023-03-29T16:21:54.915Z,17.30
2023-03-29T16:24:24.731Z,16.43
2023-03-29T16:26:55.466Z,16.50
2023-03-29T16:29:25.712Z,16.30
2023-03-29T16:31:54.228Z,16.60
2023-03-29T16:34:23.109Z,17.90
2023-03-29T16:36:52.944Z,16.50
2023-03-29T16:39:21.489Z,16.00
2023-03-29T16:41:50.354Z,16.87
2023-03-29T16:44:23.519Z,19.20
2023-03-29T16:46:57.369Z,17.60
2023-03-29T16:49:25.396Z,17.57
2023-03-29T16:51:53.348Z,17.17
2023-03-29T16:54:21.323Z,17.67
2023-03-29T16:56:49.309Z,15.87
2023-03-29T16:59:17.300Z,15.87
2023-03-29T17:01:45.475Z,15.27
2023-03-29T17:04:14.885Z,16.27
2023-03-29T17:06:43.044Z,15.50
2023-03-29T17:09:11.011Z,15.57
2023-03-29T17:11:39.530Z,15.63
2023-03-29T17:14:07.511Z,15.77
2023-03-29T17:16:36.742Z,14.87
2023-03-29T17:19:04.752Z,15.37
2023-03-29T17:21:34.078Z,14.83
2023-03-29T17:24:02.062Z,15.67
2023-03-29T17:26:30.068Z,16.00
2023-03-29T17:28:58.057Z,15.23
2023-03-29T17:31:26.239Z,16.03
2023-03-29T17:33:54.390Z,15.77
2023-03-29T17:36:24.275Z,15.93
2023-03-29T17:38:54.661Z,15.57
2023-03-29T17:41:22.894Z,15.33
2023-03-29T17:43:51.934Z,15.77
2023-03-29T17:46:22.808Z,14.97
2023-03-29T17:48:51.695Z,16.57
2023-03-29T17:51:20.018Z,16.73
2023-03-29T17:53:48.019Z,16.27
2023-03-29T17:56:17.572Z,16.87
2023-03-29T17:58:45.548Z,16.90
2023-03-29T18:01:14.537Z,16.90
2023-03-29T18:03:43.386Z,16.53
2023-03-29T18:06:11.527Z,18.13
2023-03-29T18:08:40.576Z,22.10
2023-03-29T18:11:11.556Z,19.83
2023-03-29T18:13:41.086Z,18.17
2023-03-29T18:16:10.475Z,17.67
2023-03-29T18:18:38.785Z,17.47
2023-03-29T18:21:10.078Z,18.93
2023-03-29T18:23:39.820Z,17.07
2023-03-29T18:26:09.423Z,18.43
2023-03-29T18:28:38.155Z,17.73
2023-03-29T18:31:07.493Z,17.77
2023-03-29T18:33:36.168Z,18.77
2023-03-29T18:36:05.096Z,19.10
2023-03-29T18:38:35.065Z,18.63
2023-03-29T18:41:04.017Z,17.80
2023-03-29T18:43:33.448Z,19.37
2023-03-29T18:46:02.091Z,19.40
2023-03-29T18:48:33.652Z,20.37
2023-03-29T18:51:02.769Z,19.40
2023-03-29T18:53:31.815Z,19.83
2023-03-29T18:56:01.094Z,19.03
2023-03-29T18:58:29.795Z,18.80
2023-03-29T19:01:02.732Z,19.80
2023-03-29T19:03:32.531Z,19.97
2023-03-29T19:06:01.259Z,19.73
2023-03-29T19:08:29.393Z,19.50
2023-03-29T19:11:02.844Z,20.93
2023-03-29T19:13:30.863Z,19.93
2023-03-29T19:15:59.028Z,20.10
2023-03-29T19:18:27.146Z,19.70
2023-03-29T19:20:56.600Z,20.03
2023-03-29T19:23:27.119Z,21.13
2023-03-29T19:25:56.356Z,20.60
2023-03-29T19:28:24.820Z,20.00
2023-03-29T19:30:53.221Z,20.50
2023-03-29T19:33:21.586Z,19.77
2023-03-29T19:35:50.953Z,20.60
2023-03-29T19:38:21.041Z,19.40
2023-03-29T19:40:50.393Z,20.50
2023-03-29T19:43:18.804Z,19.03
2023-03-29T19:45:48.489Z,20.27
2023-03-29T19:48:22.251Z,20.30
2023-03-29T19:50:51.497Z,19.83
2023-03-29T19:53:21.127Z,20.97
2023-03-29T19:55:49.523Z,21.23
2023-03-29T19:58:17.522Z,20.90
2023-03-29T20:00:46.562Z,21.43
2023-03-29T20:03:15.700Z,22.03
2023-03-29T20:05:43.923Z,21.77
2023-03-29T20:08:11.884Z,22.30
2023-03-29T20:10:41.504Z,22.07
2023-03-29T20:13:09.560Z,20.60
2023-03-29T20:15:37.521Z,21.13
2023-03-29T20:18:06.203Z,21.80
2023-03-29T20:20:35.623Z,20.37
2023-03-29T20:23:05.295Z,20.47
2023-03-29T20:25:33.698Z,21.67
2023-03-29T20:28:03.922Z,21.83
2023-03-29T20:30:31.908Z,22.17
2023-03-29T20:33:00.089Z,22.57
2023-03-29T20:35:28.172Z,21.37
2023-03-29T20:37:56.156Z,22.10
2023-03-29T20:40:24.735Z,22.10
2023-03-29T20:42:54.231Z,22.70
2023-03-29T20:45:23.660Z,22.60
2023-03-29T20:47:57.580Z,22.87
2023-03-29T20:50:29.575Z,23.83
2023-03-29T20:53:03.833Z,23.40
2023-03-29T20:55:33.289Z,23.83
2023-03-29T20:58:02.216Z,25.40
2023-03-29T21:00:33.602Z,24.80
2023-03-29T21:03:03.695Z,25.00
2023-03-29T21:05:32.881Z,25.50
2023-03-29T21:08:01.009Z,24.87
2023-03-29T21:10:29.640Z,26.00
2023-03-29T21:13:00.459Z,24.63
2023-03-29T21:15:30.767Z,25.97
2023-03-29T21:18:00.457Z,25.67
2023-03-29T21:20:28.828Z,25.43
2023-03-29T21:22:57.070Z,26.00
2023-03-29T21:25:25.112Z,27.40
2023-03-29T21:27:53.195Z,26.80
2023-03-29T21:30:21.300Z,26.03
2023-03-29T21:32:50.387Z,26.37
2023-03-29T21:35:20.002Z,27.53
2023-03-29T21:37:48.016Z,27.63
2023-03-29T21:40:16.015Z,26.97
2023-03-29T21:42:43.968Z,27.30
2023-03-29T21:45:12.447Z,27.80
2023-03-29T21:47:40.503Z,27.60
2023-03-29T21:50:09.406Z,26.67
2023-03-29T21:52:38.856Z,28.10
2023-03-29T21:55:07.436Z,27.03
2023-03-29T21:57:35.565Z,27.30
2023-03-29T22:00:05.175Z,27.47
2023-03-29T22:02:33.291Z,28.63
2023-03-29T22:05:03.342Z,28.80
2023-03-29T22:07:31.333Z,27.60
2023-03-29T22:10:04.200Z,27.37
2023-03-29T22:12:34.481Z,27.27
2023-03-29T22:15:02.526Z,28.07
2023-03-29T22:17:30.520Z,29.20
2023-03-29T22:19:58.535Z,28.23
2023-03-29T22:22:26.605Z,26.97
2023-03-29T22:24:54.939Z,26.20
2023-03-29T22:27:24.598Z,27.50
2023-03-29T22:29:52.562Z,28.27
2023-03-29T22:32:20.631Z,27.17
2023-03-29T22:34:48.680Z,27.57
2023-03-29T22:37:17.933Z,29.00
2023-03-29T22:39:46.446Z,30.03
2023-03-29T22:42:14.489Z,31.57
2023-03-29T22:44:43.824Z,31.90
2023-03-29T22:47:11.821Z,29.90
2023-03-29T22:49:40.017Z,32.00
2023-03-29T22:52:08.057Z,33.63
2023-03-29T22:54:36.143Z,32.83
2023-03-29T22:57:04.255Z,34.10
2023-03-29T22:59:32.294Z,33.03
2023-03-29T23:02:01.729Z,34.63
2023-03-29T23:04:29.810Z,34.67
2023-03-29T23:06:58.430Z,34.07
2023-03-29T23:09:26.384Z,34.13
2023-03-29T23:11:54.408Z,34.87
2023-03-29T23:14:22.732Z,34.03
2023-03-29T23:16:50.749Z,34.80
2023-03-29T23:19:20.079Z,32.80
2023-03-29T23:21:48.084Z,34.10
2023-03-29T23:24:18.983Z,33.97
2023-03-29T23:26:48.983Z,35.30
2023-03-29T23:29:16.996Z,33.33
2023-03-29T23:31:45.372Z,35.47
2023-03-29T23:34:13.417Z,34.47
2023-03-29T23:36:42.785Z,35.70
2023-03-29T23:39:10.979Z,33.27
2023-03-29T23:41:40.129Z,34.97
2023-03-29T23:44:08.111Z,34.60
2023-03-29T23:46:36.138Z,36.70
2023-03-29T23:49:04.120Z,34.53
2023-03-29T23:51:34.923Z,34.13
2023-03-29T23:54:04.390Z,34.87
2023-03-29T23:56:32.562Z,33.87
2023-03-29T23:59:01.487Z,35.27
